Time;durP1;ratioP1;P1;durP2;ratioP2;P2;SDS_P1;SDS_P2;PMS_P1;PMS_P2;Temp;Humidity;BMP_temperature;BMP_pressure;BME280_temperature;BME280_humidity;BME280_pressure;Samples;Min_cycle;Max_cycle;Signal;HPM_P1;HPM_P2
2024/03/30 00:01:49;;;;;;;3.43;3.33;;;14.00;99.90;;;;;;5014905;28;20463;-58
2024/03/30 00:04:15;;;;;;;3.63;3.47;;;13.90;99.90;;;;;;5015741;28;20483;-58
2024/03/30 00:06:41;;;;;;;3.67;3.47;;;13.90;99.90;;;;;;5013966;28;20284;-58
2024/03/30 00:09:07;;;;;;;3.70;3.60;;;13.90;99.90;;;;;;5015528;28;20186;-58
2024/03/30 00:11:33;;;;;;;3.73;3.63;;;13.90;99.90;;;;;;5015760;28;20408;-58
2024/03/30 00:13:59;;;;;;;4.33;4.10;;;13.90;99.90;;;;;;5014916;28;20361;-58
2024/03/30 00:16:25;;;;;;;4.13;3.93;;;13.90;99.90;;;;;;5015504;28;20435;-59
2024/03/30 00:18:53;;;;;;;3.43;3.33;;;13.90;99.90;;;;;;5013487;28;20419;-58
2024/03/30 00:21:19;;;;;;;4.10;3.90;;;13.90;99.90;;;;;;5015701;28;20202;-58
2024/03/30 00:23:45;;;;;;;3.60;3.50;;;13.80;99.90;;;;;;5013110;28;20859;-58
2024/03/30 00:26:11;;;;;;;4.73;4.40;;;13.80;99.90;;;;;;4995905;28;20528;-58
2024/03/30 00:28:36;;;;;;;3.93;3.73;;;13.80;99.90;;;;;;4995826;28;20177;-58
2024/03/30 00:31:02;;;;;;;4.30;4.00;;;13.80;99.90;;;;;;4994963;28;20188;-58
2024/03/30 00:33:28;;;;;;;3.97;3.77;;;13.80;99.90;;;;;;5000291;28;20233;-58
2024/03/30 00:35:55;;;;;;;5.13;4.63;;;13.80;99.90;;;;;;5012767;28;20219;-58
2024/03/30 00:38:21;;;;;;;4.53;4.33;;;13.80;99.90;;;;;;5014791;28;20841;-58
2024/03/30 00:40:47;;;;;;;4.60;4.30;;;13.80;99.90;;;;;;5014390;28;20934;-58
2024/03/30 00:43:13;;;;;;;3.90;3.70;;;13.80;99.90;;;;;;5014698;28;20460;-58
2024/03/30 00:45:39;;;;;;;4.10;3.80;;;13.80;99.90;;;;;;5014872;28;20180;-58
2024/03/30 00:48:06;;;;;;;4.00;3.70;;;13.80;99.90;;;;;;5014262;28;20675;-58
2024/03/30 00:50:32;;;;;;;3.70;3.50;;;13.80;99.90;;;;;;5015029;28;20439;-58
2024/03/30 00:52:58;;;;;;;3.60;3.40;;;13.70;99.90;;;;;;5014095;28;20408;-58
2024/03/30 00:55:23;;;;;;;4.00;3.70;;;13.70;99.90;;;;;;5014939;28;20871;-58
2024/03/30 00:57:49;;;;;;;3.70;3.50;;;13.70;99.90;;;;;;5013994;28;20269;-58
2024/03/30 01:00:15;;;;;;;4.13;3.93;;;13.70;99.90;;;;;;5014976;28;20183;-58
2024/03/30 01:02:44;;;;;;;4.20;4.00;;;13.70;99.90;;;;;;5012807;28;20227;-58
2024/03/30 01:05:10;;;;;;;3.50;3.40;;;13.70;99.90;;;;;;5012862;28;20432;-58
2024/03/30 01:07:37;;;;;;;4.40;4.10;;;13.70;99.90;;;;;;5014318;28;20454;-58
2024/03/30 01:10:04;;;;;;;4.73;4.40;;;13.70;99.90;;;;;;5013812;28;20418;-58
2024/03/30 01:12:31;;;;;;;4.20;4.00;;;13.70;99.90;;;;;;5014592;28;20503;-59
2024/03/30 01:14:57;;;;;;;4.10;3.90;;;13.70;99.90;;;;;;5012464;28;20420;-59
2024/03/30 01:17:23;;;;;;;4.60;4.30;;;13.60;99.90;;;;;;5014717;28;20498;-58
2024/03/30 01:19:49;;;;;;;4.30;4.10;;;13.60;99.90;;;;;;5013607;28;20411;-59
2024/03/30 01:22:15;;;;;;;4.43;4.20;;;13.60;99.90;;;;;;5014545;28;20419;-59
2024/03/30 01:24:41;;;;;;;5.00;4.60;;;13.60;99.90;;;;;;5013945;28;20456;-59
2024/03/30 01:27:11;;;;;;;5.47;5.07;;;13.50;99.90;;;;;;5013628;28;20488;-59
2024/03/30 01:29:37;;;;;;;5.90;5.40;;;13.50;99.90;;;;;;5014041;28;20971;-58
2024/03/30 01:32:03;;;;;;;5.53;5.13;;;13.50;99.90;;;;;;5013256;28;20484;-58
2024/03/30 01:34:32;;;;;;;5.27;4.90;;;13.40;99.90;;;;;;5014213;28;20817;-58
2024/03/30 01:36:57;;;;;;;5.00;4.70;;;13.40;99.90;;;;;;5012198;28;20433;-58
2024/03/30 01:39:23;;;;;;;5.20;4.80;;;13.40;99.90;;;;;;5013997;28;20823;-59
2024/03/30 01:41:49;;;;;;;5.50;5.10;;;13.30;99.90;;;;;;5013385;28;20167;-58
2024/03/30 01:44:15;;;;;;;5.00;4.60;;;13.40;99.90;;;;;;5012336;28;20258;-58
2024/03/30 01:46:41;;;;;;;9.00;8.40;;;13.40;99.90;;;;;;5012746;28;20299;-58
2024/03/30 01:49:09;;;;;;;10.23;9.53;;;13.30;99.90;;;;;;5013133;28;20406;-58
2024/03/30 01:51:36;;;;;;;10.00;9.40;;;13.20;99.90;;;;;;5013872;28;20414;-58
2024/03/30 01:54:03;;;;;;;8.10;7.60;;;13.10;99.90;;;;;;5013036;28;20414;-58
2024/03/30 01:56:29;;;;;;;7.10;6.70;;;12.90;99.90;;;;;;5013784;28;20840;-58
2024/03/30 01:58:56;;;;;;;6.13;5.73;;;12.90;99.90;;;;;;5012849;28;20445;-58
2024/03/30 02:01:23;;;;;;;4.87;4.57;;;13.00;99.90;;;;;;5013497;28;20450;-58
2024/03/30 02:03:51;;;;;;;5.10;4.80;;;12.70;99.90;;;;;;5012372;28;20492;-58
2024/03/30 02:06:18;;;;;;;4.40;4.20;;;12.70;99.90;;;;;;5012369;28;20445;-58
2024/03/30 02:08:45;;;;;;;4.97;4.63;;;12.70;99.90;;;;;;5013539;28;20894;-58
2024/03/30 02:11:13;;;;;;;7.03;6.53;;;12.80;99.90;;;;;;5013307;28;20416;-58
2024/03/30 02:13:40;;;;;;;11.43;10.63;;;12.80;99.90;;;;;;5012981;28;20426;-58
2024/03/30 02:16:06;;;;;;;12.77;11.80;;;12.90;99.90;;;;;;5012260;28;20402;-58
2024/03/30 02:18:32;;;;;;;9.83;9.23;;;12.90;99.90;;;;;;5013324;28;20451;-58
2024/03/30 02:20:58;;;;;;;8.17;7.57;;;13.00;99.90;;;;;;5013012;28;20413;-58
2024/03/30 02:23:24;;;;;;;7.10;6.60;;;12.90;99.90;;;;;;5011827;28;20252;-58
2024/03/30 02:25:49;;;;;;;5.50;5.20;;;12.80;99.90;;;;;;5012042;28;20175;-58
2024/03/30 02:28:20;;;;;;;5.70;5.40;;;12.70;99.90;;;;;;5012852;28;20286;-58
2024/03/30 02:30:45;;;;;;;5.27;4.77;;;12.70;99.90;;;;;;5012436;28;20603;-64
2024/03/30 02:33:11;;;;;;;5.50;5.20;;;12.70;99.90;;;;;;5012632;28;20422;-58
2024/03/30 02:35:37;;;;;;;5.20;4.90;;;12.80;99.90;;;;;;5012249;28;20677;-58
2024/03/30 02:38:03;;;;;;;4.83;4.53;;;12.80;99.90;;;;;;5012015;28;20512;-58
2024/03/30 02:40:29;;;;;;;5.00;4.60;;;12.90;99.90;;;;;;5013091;28;20462;-58
2024/03/30 02:42:55;;;;;;;4.93;4.63;;;12.90;99.90;;;;;;5010702;28;20182;-58
2024/03/30 02:45:20;;;;;;;4.70;4.40;;;12.90;99.90;;;;;;5012951;28;20266;-58
2024/03/30 02:47:46;;;;;;;5.70;5.20;;;13.00;99.90;;;;;;5012809;28;20199;-58
2024/03/30 02:50:12;;;;;;;5.67;5.27;;;13.00;99.90;;;;;;5011882;28;20586;-59
2024/03/30 02:52:37;;;;;;;5.27;4.97;;;13.00;99.90;;;;;;5011290;28;20205;-58
2024/03/30 02:55:03;;;;;;;5.17;4.87;;;13.10;99.90;;;;;;5011922;28;20178;-58
2024/03/30 02:57:29;;;;;;;4.87;4.60;;;13.00;99.90;;;;;;5012880;28;20186;-58
2024/03/30 02:59:55;;;;;;;5.07;4.70;;;13.00;99.90;;;;;;5011901;28;20476;-58
2024/03/30 03:02:21;;;;;;;5.10;4.80;;;13.00;99.90;;;;;;5012566;28;20234;-58
2024/03/30 03:04:48;;;;;;;4.80;4.50;;;13.00;99.90;;;;;;5012258;28;20178;-58
2024/03/30 03:07:15;;;;;;;5.80;5.40;;;12.90;99.90;;;;;;5011507;28;20475;-59
2024/03/30 03:09:41;;;;;;;5.13;4.93;;;13.00;99.90;;;;;;5012515;28;20505;-59
2024/03/30 03:12:07;;;;;;;5.00;4.70;;;12.90;99.90;;;;;;5010616;28;20982;-58
2024/03/30 03:14:32;;;;;;;5.50;5.10;;;12.90;99.90;;;;;;5012516;28;20168;-58
2024/03/30 03:16:58;;;;;;;5.20;4.90;;;13.00;99.90;;;;;;5011740;28;20183;-58
2024/03/30 03:19:24;;;;;;;5.70;5.40;;;12.90;99.90;;;;;;5012486;28;20177;-58
2024/03/30 03:21:50;;;;;;;5.53;5.27;;;12.90;99.90;;;;;;5012206;28;20178;-58
2024/03/30 03:24:16;;;;;;;5.60;5.30;;;12.90;99.90;;;;;;5012003;28;20224;-58
2024/03/30 03:26:41;;;;;;;5.47;5.17;;;12.90;99.90;;;;;;5012981;28;20582;-58
2024/03/30 03:29:07;;;;;;;5.47;5.17;;;12.90;99.90;;;;;;5015665;28;20417;-58
2024/03/30 03:31:33;;;;;;;5.80;5.50;;;12.90;99.90;;;;;;5015999;28;20174;-58
2024/03/30 03:33:58;;;;;;;5.00;4.80;;;12.80;99.90;;;;;;5015576;28;20186;-58
2024/03/30 03:36:24;;;;;;;5.47;5.07;;;12.90;99.90;;;;;;5015187;28;20191;-58
2024/03/30 03:38:50;;;;;;;5.17;4.87;;;12.90;99.90;;;;;;5016468;28;20269;-59
2024/03/30 03:41:16;;;;;;;5.57;5.37;;;12.90;99.90;;;;;;5016031;28;20631;-58
2024/03/30 03:43:42;;;;;;;5.80;5.50;;;12.80;99.90;;;;;;5015779;28;20175;-58
2024/03/30 03:46:08;;;;;;;5.43;5.13;;;12.80;99.90;;;;;;5014749;28;20269;-58
2024/03/30 03:48:33;;;;;;;5.40;5.10;;;12.80;99.90;;;;;;5016113;28;20554;-58
2024/03/30 03:50:59;;;;;;;5.50;5.20;;;12.80;99.90;;;;;;5015291;28;20324;-58
2024/03/30 03:53:25;;;;;;;5.50;5.20;;;12.80;99.90;;;;;;5015967;28;20527;-58
2024/03/30 03:55:51;;;;;;;5.50;5.20;;;12.80;99.90;;;;;;5015789;28;20746;-58
2024/03/30 03:58:17;;;;;;;5.80;5.40;;;12.70;99.90;;;;;;5015041;28;20409;-58
2024/03/30 04:00:42;;;;;;;5.50;5.10;;;12.70;99.90;;;;;;5015864;28;20587;-58
2024/03/30 04:03:11;;;;;;;5.20;4.90;;;12.70;99.90;;;;;;5013523;28;20232;-58
2024/03/30 04:05:36;;;;;;;5.50;5.10;;;12.70;99.90;;;;;;5014665;28;20648;-58
2024/03/30 04:08:02;;;;;;;5.97;5.57;;;12.70;99.90;;;;;;5014890;28;20452;-58
2024/03/30 04:10:28;;;;;;;5.43;5.13;;;12.70;99.90;;;;;;5015678;28;20218;-58
2024/03/30 04:12:54;;;;;;;5.70;5.40;;;12.70;99.90;;;;;;5015044;28;20452;-58
2024/03/30 04:15:20;;;;;;;5.17;4.87;;;12.70;99.90;;;;;;5014022;28;20166;-58
2024/03/30 04:17:47;;;;;;;5.33;5.03;;;12.70;99.90;;;;;;5015224;28;20174;-58
2024/03/30 04:20:13;;;;;;;5.00;4.70;;;12.70;99.90;;;;;;5014987;28;20210;-59
2024/03/30 04:22:39;;;;;;;4.93;4.53;;;12.70;99.90;;;;;;5015064;28;22405;-58
2024/03/30 04:25:06;;;;;;;5.00;4.70;;;12.70;99.90;;;;;;5014666;28;20416;-58
2024/03/30 04:27:32;;;;;;;5.40;5.10;;;12.70;99.90;;;;;;5030527;28;20571;-59
2024/03/30 04:29:57;;;;;;;5.43;5.00;;;12.70;99.90;;;;;;5014827;28;20417;-59
2024/03/30 04:32:23;;;;;;;4.83;4.63;;;12.80;99.90;;;;;;5015258;28;20534;-59
2024/03/30 04:34:49;;;;;;;4.50;4.30;;;12.80;99.90;;;;;;5013850;28;20595;-59
2024/03/30 04:37:14;;;;;;;5.40;5.10;;;12.70;99.90;;;;;;5014139;28;20186;-59
2024/03/30 04:39:43;;;;;;;5.50;5.20;;;12.60;99.90;;;;;;5015112;28;20178;-59
2024/03/30 04:42:10;;;;;;;5.27;4.97;;;12.60;99.90;;;;;;5014580;28;20174;-59
2024/03/30 04:44:36;;;;;;;5.10;4.70;;;12.60;99.90;;;;;;5014825;28;20428;-59
2024/03/30 04:47:02;;;;;;;4.90;4.67;;;12.60;99.90;;;;;;5014241;28;20449;-59
2024/03/30 04:49:28;;;;;;;5.27;4.97;;;12.60;99.90;;;;;;5014774;28;20425;-59
2024/03/30 04:51:53;;;;;;;5.40;5.00;;;12.70;99.90;;;;;;5014941;28;20406;-59
2024/03/30 04:54:19;;;;;;;5.10;4.80;;;12.70;99.90;;;;;;5014293;28;20670;-59
2024/03/30 04:56:45;;;;;;;5.17;4.87;;;12.70;99.90;;;;;;5014882;28;20189;-58
2024/03/30 04:59:11;;;;;;;5.67;5.27;;;12.70;99.90;;;;;;5014065;28;20181;-59
2024/03/30 05:01:36;;;;;;;5.90;5.43;;;12.70;99.90;;;;;;5014550;28;20169;-58
2024/03/30 05:04:02;;;;;;;5.23;4.93;;;12.70;99.90;;;;;;5012978;28;20177;-59
2024/03/30 05:06:28;;;;;;;5.37;4.97;;;12.70;99.90;;;;;;5013557;28;20210;-58
2024/03/30 05:08:53;;;;;;;5.57;5.00;;;12.70;99.90;;;;;;5014383;28;20413;-58
2024/03/30 05:11:19;;;;;;;6.03;5.27;;;12.70;99.90;;;;;;5013600;28;20185;-59
2024/03/30 05:13:45;;;;;;;4.93;4.60;;;12.70;99.90;;;;;;5013195;28;20181;-59
2024/03/30 05:16:11;;;;;;;5.27;4.87;;;12.70;99.90;;;;;;5011841;28;20241;-58
2024/03/30 05:18:36;;;;;;;5.53;5.20;;;12.70;99.90;;;;;;5013790;28;20190;-58
2024/03/30 05:21:02;;;;;;;5.73;5.43;;;12.70;99.90;;;;;;5013699;28;20661;-58
2024/03/30 05:23:29;;;;;;;5.80;5.40;;;12.70;99.90;;;;;;5014415;28;20182;-59
2024/03/30 05:25:57;;;;;;;6.20;5.70;;;12.70;99.90;;;;;;5013437;28;20412;-59
2024/03/30 05:28:27;;;;;;;6.10;5.60;;;12.70;99.90;;;;;;5013828;28;20468;-59
2024/03/30 05:30:55;;;;;;;5.80;5.50;;;12.70;99.90;;;;;;5014303;28;20506;-59
2024/03/30 05:33:22;;;;;;;5.97;5.67;;;12.70;99.90;;;;;;5012625;28;20419;-58
2024/03/30 05:35:49;;;;;;;6.70;6.30;;;12.60;99.90;;;;;;5013462;28;20482;-58
2024/03/30 05:38:16;;;;;;;6.73;6.23;;;12.60;99.90;;;;;;5013626;28;20428;-58
2024/03/30 05:40:42;;;;;;;6.50;6.00;;;12.60;99.90;;;;;;5014061;28;20412;-58
2024/03/30 05:43:08;;;;;;;6.80;6.30;;;12.70;99.90;;;;;;5013535;28;20425;-58
2024/03/30 05:45:36;;;;;;;6.90;6.40;;;12.70;99.90;;;;;;5013983;28;20413;-59
2024/03/30 05:48:02;;;;;;;7.30;6.70;;;12.70;99.90;;;;;;5012408;28;20453;-59
2024/03/30 05:50:29;;;;;;;7.30;6.70;;;12.70;99.90;;;;;;5013207;28;20737;-59
2024/03/30 05:52:55;;;;;;;7.67;7.00;;;12.70;99.90;;;;;;5013306;28;20841;-60
2024/03/30 05:55:21;;;;;;;7.70;7.10;;;12.70;99.90;;;;;;5013024;28;21226;-60
2024/03/30 05:57:47;;;;;;;7.40;6.83;;;12.70;99.90;;;;;;5013578;28;20413;-61
2024/03/30 06:00:14;;;;;;;9.30;8.50;;;12.70;99.90;;;;;;5011379;28;20608;-59
2024/03/30 06:02:42;;;;;;;7.37;6.80;;;12.70;99.90;;;;;;5012955;28;20475;-60
2024/03/30 06:05:07;;;;;;;6.87;6.37;;;12.70;99.90;;;;;;5011925;28;20472;-60
2024/03/30 06:07:35;;;;;;;6.80;6.30;;;12.70;99.90;;;;;;5013278;28;20490;-60
2024/03/30 06:10:01;;;;;;;8.27;7.57;;;12.80;99.90;;;;;;5013142;28;20657;-60
2024/03/30 06:12:26;;;;;;;7.40;6.80;;;12.70;99.90;;;;;;5012473;28;20409;-60
2024/03/30 06:14:52;;;;;;;6.90;6.37;;;12.80;99.90;;;;;;5012811;28;20830;-60
2024/03/30 06:17:18;;;;;;;6.67;6.17;;;12.80;99.90;;;;;;5010441;28;20206;-60
2024/03/30 06:19:44;;;;;;;9.80;8.10;;;12.80;99.90;;;;;;5012162;28;20201;-60
2024/03/30 06:22:10;;;;;;;7.00;6.50;;;12.90;99.90;;;;;;5007966;28;20448;-60
2024/03/30 06:24:39;;;;;;;7.63;6.80;;;12.90;99.90;;;;;;5013051;28;20471;-60
2024/03/30 06:27:08;;;;;;;6.93;6.40;;;12.90;99.90;;;;;;5012343;28;20445;-60
2024/03/30 06:29:35;;;;;;;8.93;8.00;;;13.00;99.90;;;;;;5013011;28;20418;-60
2024/03/30 06:32:02;;;;;;;10.93;7.07;;;13.00;99.90;;;;;;5012607;28;20414;-60
2024/03/30 06:34:28;;;;;;;6.67;6.27;;;13.00;99.90;;;;;;5008072;28;20456;-60
2024/03/30 06:36:53;;;;;;;6.57;6.07;;;13.00;99.90;;;;;;5012737;28;20509;-60
2024/03/30 06:39:19;;;;;;;6.90;6.20;;;13.10;99.90;;;;;;5012516;28;20522;-60
2024/03/30 06:44:30;;;;;;;8.47;6.17;;;13.20;99.90;;;;;;5012647;28;20631;-61
2024/03/30 06:46:56;;;;;;;5.90;5.50;;;13.20;99.90;;;;;;5012525;28;20454;-60
2024/03/30 06:49:22;;;;;;;6.33;5.93;;;13.30;99.90;;;;;;5012388;28;20426;-60
2024/03/30 06:51:48;;;;;;;6.30;5.90;;;13.30;99.90;;;;;;5012801;28;20179;-60
2024/03/30 06:54:14;;;;;;;6.20;5.70;;;13.40;99.90;;;;;;5012047;28;20537;-60
2024/03/30 06:56:40;;;;;;;9.30;6.20;;;13.40;99.90;;;;;;5009067;28;20508;-60
2024/03/30 06:59:06;;;;;;;6.10;5.60;;;13.50;99.90;;;;;;5010358;28;20201;-60
2024/03/30 07:01:32;;;;;;;7.67;6.50;;;13.50;99.90;;;;;;5009549;28;20478;-59
2024/03/30 07:03:59;;;;;;;8.30;4.47;;;13.60;99.90;;;;;;5003900;28;20417;-60
2024/03/30 07:06:25;;;;;;;6.30;5.27;;;13.60;99.90;;;;;;4992201;28;20412;-60
2024/03/30 07:08:51;;;;;;;7.53;5.63;;;13.70;99.90;;;;;;5007136;28;20431;-60
2024/03/30 07:11:19;;;;;;;6.33;5.07;;;13.80;99.90;;;;;;5006617;28;20445;-60
2024/03/30 07:13:45;;;;;;;6.10;4.90;;;13.90;99.90;;;;;;5005649;28;20242;-61
2024/03/30 07:16:11;;;;;;;14.33;5.80;;;14.00;99.90;;;;;;5011524;28;21054;-60
2024/03/30 07:18:37;;;;;;;5.90;5.40;;;14.10;99.90;;;;;;5001355;28;20453;-60
2024/03/30 07:21:03;;;;;;;12.10;5.40;;;14.10;99.90;;;;;;5011195;28;20928;-60
2024/03/30 07:23:29;;;;;;;5.33;4.60;;;14.20;99.90;;;;;;5011846;28;20419;-60
2024/03/30 07:25:55;;;;;;;5.10;4.50;;;14.20;99.90;;;;;;5012431;28;20481;-60
2024/03/30 07:28:22;;;;;;;7.53;6.47;;;14.20;99.90;;;;;;5010089;28;20475;-60
2024/03/30 07:30:53;;;;;;;5.47;4.97;;;14.30;99.90;;;;;;5012375;28;20417;-60
2024/03/30 07:33:20;;;;;;;7.57;4.93;;;14.30;99.90;;;;;;5011397;28;20469;-60
2024/03/30 07:35:57;;;;;;;5.10;4.70;;;14.30;99.90;;;;;;5011391;28;20456;-60
2024/03/30 07:38:31;;;;;;;6.23;4.77;;;14.30;99.90;;;;;;5011300;28;20523;-60
2024/03/30 07:40:57;;;;;;;6.73;5.63;;;14.40;99.90;;;;;;5009390;28;20409;-60
2024/03/30 07:43:23;;;;;;;6.23;5.07;;;14.40;99.90;;;;;;5011414;28;20428;-60
2024/03/30 07:45:49;;;;;;;7.10;5.17;;;14.40;99.90;;;;;;5011871;28;20504;-60
2024/03/30 07:48:15;;;;;;;7.27;4.77;;;14.40;99.90;;;;;;5010684;28;20545;-61
2024/03/30 07:50:40;;;;;;;6.43;5.33;;;14.50;99.90;;;;;;5011815;28;20201;-60
2024/03/30 07:53:06;;;;;;;9.07;4.70;;;14.50;99.90;;;;;;5011882;28;20185;-60
2024/03/30 07:55:32;;;;;;;9.80;5.33;;;14.60;99.90;;;;;;5000897;28;20178;-60
2024/03/30 07:57:58;;;;;;;6.47;4.20;;;14.60;99.90;;;;;;5011743;28;20213;-60
2024/03/30 08:00:24;;;;;;;4.60;3.70;;;14.60;99.90;;;;;;5011093;28;20221;-60
2024/03/30 08:02:50;;;;;;;6.83;3.60;;;14.70;99.90;;;;;;5001017;28;21043;-60
2024/03/30 08:05:17;;;;;;;5.60;3.97;;;14.70;99.90;;;;;;4993676;28;20198;-60
2024/03/30 08:07:42;;;;;;;4.13;3.43;;;14.80;99.90;;;;;;5011848;28;20448;-60
2024/03/30 08:10:08;;;;;;;5.03;4.17;;;14.70;99.90;;;;;;5011603;28;20967;-60
2024/03/30 08:12:34;;;;;;;7.67;3.50;;;14.80;99.90;;;;;;5011905;28;20217;-60
2024/03/30 08:15:00;;;;;;;8.10;3.80;;;14.90;99.90;;;;;;5015594;28;20417;-60
2024/03/30 08:17:25;;;;;;;9.00;3.50;;;14.80;99.90;;;;;;5011562;28;20198;-60
2024/03/30 08:19:51;;;;;;;10.30;4.30;;;14.90;99.90;;;;;;5015516;28;20175;-60
2024/03/30 08:22:17;;;;;;;15.03;4.23;;;14.90;99.90;;;;;;5012517;28;20201;-60
2024/03/30 08:24:43;;;;;;;5.43;3.63;;;15.00;99.90;;;;;;5012629;28;20202;-60
2024/03/30 08:27:08;;;;;;;6.67;3.67;;;15.10;99.90;;;;;;4995995;28;20199;-60
2024/03/30 08:29:34;;;;;;;16.70;4.73;;;15.30;99.90;;;;;;4999651;28;20198;-60
2024/03/30 08:32:00;;;;;;;11.27;4.97;;;15.30;99.90;;;;;;5014398;28;20627;-60
2024/03/30 08:34:25;;;;;;;8.57;3.33;;;15.50;99.90;;;;;;5014330;28;20190;-60
2024/03/30 08:36:51;;;;;;;7.13;4.07;;;15.50;99.90;;;;;;5014935;28;20178;-60
2024/03/30 08:39:17;;;;;;;9.37;3.77;;;15.70;99.90;;;;;;5014448;28;20658;-60
2024/03/30 08:41:42;;;;;;;5.97;3.80;;;15.80;99.90;;;;;;5014686;28;20178;-60
2024/03/30 08:44:08;;;;;;;5.03;3.67;;;15.90;99.90;;;;;;5014880;28;20587;-60
2024/03/30 08:46:34;;;;;;;9.00;3.77;;;16.00;99.90;;;;;;5014194;28;20175;-60
2024/03/30 08:49:03;;;;;;;10.00;4.30;;;16.10;99.90;;;;;;5015302;28;20179;-60
2024/03/30 08:51:29;;;;;;;13.63;4.57;;;16.10;99.90;;;;;;5013513;28;20258;-60
2024/03/30 08:54:05;;;;;;;8.90;4.10;;;16.10;99.90;;;;;;5011009;28;20496;-60
2024/03/30 08:56:33;;;;;;;7.70;4.10;;;16.20;99.90;;;;;;5005791;28;20613;-60
2024/03/30 08:58:59;;;;;;;10.70;3.93;;;16.40;99.90;;;;;;5014800;28;20497;-60
2024/03/30 09:01:25;;;;;;;16.83;3.37;;;16.50;99.90;;;;;;5012092;28;20414;-60
2024/03/30 09:03:51;;;;;;;12.90;3.73;;;16.70;99.90;;;;;;5014817;28;20841;-60
2024/03/30 09:06:17;;;;;;;13.07;3.80;;;16.80;99.90;;;;;;5014112;28;20508;-60
2024/03/30 09:08:43;;;;;;;6.80;4.00;;;16.90;99.90;;;;;;5011964;28;20179;-60
2024/03/30 09:11:09;;;;;;;11.90;4.37;;;16.80;99.90;;;;;;5008962;28;20516;-60
2024/03/30 09:13:35;;;;;;;11.40;3.80;;;16.80;99.90;;;;;;5013122;28;20438;-60
2024/03/30 09:16:01;;;;;;;9.37;4.53;;;17.00;99.90;;;;;;5013474;28;20398;-59
2024/03/30 09:18:27;;;;;;;7.50;4.33;;;17.00;99.80;;;;;;5011651;28;20556;-59
2024/03/30 09:20:53;;;;;;;6.83;3.90;;;17.10;99.90;;;;;;5013236;28;20422;-59
2024/03/30 09:23:18;;;;;;;16.80;4.63;;;17.10;99.10;;;;;;5012239;28;20187;-60
2024/03/30 09:25:44;;;;;;;11.53;4.30;;;17.20;98.40;;;;;;5011274;28;20182;-60
2024/03/30 09:28:10;;;;;;;15.33;4.50;;;17.20;98.40;;;;;;5014209;28;20209;-59
2024/03/30 09:30:36;;;;;;;16.40;5.03;;;17.30;98.00;;;;;;5010727;28;20262;-60
2024/03/30 09:33:01;;;;;;;11.47;4.13;;;17.30;97.30;;;;;;4994407;28;20234;-59
2024/03/30 09:35:27;;;;;;;16.40;4.70;;;17.20;96.20;;;;;;4993805;28;20183;-60
2024/03/30 09:37:53;;;;;;;14.13;4.03;;;17.20;96.00;;;;;;4994706;28;20180;-58
2024/03/30 09:40:19;;;;;;;13.27;5.30;;;17.30;95.20;;;;;;4993856;28;20415;-63
2024/03/30 09:42:46;;;;;;;14.60;4.10;;;17.20;94.40;;;;;;4997308;28;20414;-60
2024/03/30 09:45:13;;;;;;;17.10;4.63;;;17.20;94.20;;;;;;5013799;28;20630;-63
2024/03/30 09:47:41;;;;;;;12.67;4.37;;;17.30;94.00;;;;;;5011366;28;20465;-68
2024/03/30 09:50:09;;;;;;;12.47;4.13;;;17.40;94.10;;;;;;5008573;28;20873;-61
2024/03/30 09:52:39;;;;;;;11.87;4.67;;;17.60;93.10;;;;;;5013133;28;20776;-60
2024/03/30 09:55:10;;;;;;;16.53;5.90;;;17.70;93.00;;;;;;5012414;28;20989;-65
2024/03/30 09:57:45;;;;;;;12.77;5.47;;;17.70;92.80;;;;;;5011858;28;20745;-62
2024/03/30 10:00:13;;;;;;;13.10;4.70;;;17.80;93.70;;;;;;4994236;28;20422;-61
2024/03/30 10:02:39;;;;;;;11.83;5.37;;;17.90;92.00;;;;;;5007081;28;20552;-62
2024/03/30 10:05:09;;;;;;;10.63;4.50;;;18.00;95.50;;;;;;5012925;28;20456;-62
2024/03/30 10:07:37;;;;;;;13.07;5.03;;;17.90;93.50;;;;;;5012425;28;20926;-62
2024/03/30 10:10:15;;;;;;;16.50;5.53;;;18.00;91.50;;;;;;5013250;28;20402;-62
2024/03/30 10:13:02;;;;;;;20.47;5.67;;;18.10;92.70;;;;;;5013190;28;20421;-62
2024/03/30 10:15:42;;;;;;;30.20;6.63;;;18.10;87.60;;;;;;5009459;28;20402;-62
2024/03/30 10:18:08;;;;;;;15.70;5.80;;;18.10;84.00;;;;;;5009299;28;20433;-62
2024/03/30 10:20:35;;;;;;;17.93;5.70;;;18.30;88.80;;;;;;5007109;28;20402;-62
2024/03/30 10:23:01;;;;;;;22.80;6.97;;;18.30;84.50;;;;;;5012879;28;20179;-62
2024/03/30 10:25:26;;;;;;;27.27;7.83;;;18.30;84.40;;;;;;5011457;28;20418;-62
2024/03/30 10:27:52;;;;;;;23.17;7.37;;;18.30;84.80;;;;;;5009022;28;20876;-62
2024/03/30 10:30:18;;;;;;;19.00;5.63;;;18.40;87.70;;;;;;5011296;28;20241;-62
2024/03/30 10:32:45;;;;;;;20.97;5.63;;;18.40;81.70;;;;;;5012404;28;20457;-62
2024/03/30 10:35:14;;;;;;;24.10;6.40;;;18.40;80.50;;;;;;5013016;28;20178;-63
2024/03/30 10:37:40;;;;;;;21.43;6.03;;;18.50;82.70;;;;;;5012043;28;20414;-62
2024/03/30 10:40:10;;;;;;;21.57;6.97;;;18.60;82.30;;;;;;5010501;28;20436;-62
2024/03/30 10:42:40;;;;;;;32.33;6.40;;;18.70;84.20;;;;;;5000795;28;20418;-66
2024/03/30 10:45:07;;;;;;;23.50;6.33;;;18.90;85.80;;;;;;5009913;28;20418;-64
2024/03/30 10:47:34;;;;;;;20.13;6.53;;;18.90;81.30;;;;;;5011471;28;20446;-65
2024/03/30 10:50:01;;;;;;;23.37;7.20;;;19.00;81.10;;;;;;5008334;28;20414;-65
2024/03/30 10:52:27;;;;;;;34.57;11.37;;;19.00;79.50;;;;;;5011624;28;20410;-64
2024/03/30 10:54:57;;;;;;;40.50;18.63;;;19.00;78.60;;;;;;4997019;28;20422;-62
2024/03/30 10:57:24;;;;;;;27.33;8.60;;;18.90;78.30;;;;;;5010983;28;20417;-62
2024/03/30 10:59:51;;;;;;;23.57;5.50;;;19.00;79.60;;;;;;5011375;28;20905;-61
2024/03/30 11:02:20;;;;;;;21.83;7.47;;;18.80;79.20;;;;;;4994193;28;20480;-61
2024/03/30 11:04:47;;;;;;;17.23;5.67;;;18.90;79.00;;;;;;5012030;28;20493;-60
2024/03/30 11:07:13;;;;;;;20.20;5.53;;;18.90;79.70;;;;;;5012141;28;20530;-61
2024/03/30 11:09:46;;;;;;;27.23;6.00;;;19.00;79.40;;;;;;5001025;28;21620;-61
2024/03/30 11:12:15;;;;;;;18.63;5.23;;;19.00;80.90;;;;;;5010902;28;20430;-64
2024/03/30 11:14:42;;;;;;;34.80;7.87;;;19.00;81.40;;;;;;5010763;28;20442;-61
2024/03/30 11:17:20;;;;;;;21.87;6.20;;;18.90;79.50;;;;;;5009192;28;20424;-61
2024/03/30 11:19:57;;;;;;;19.83;5.30;;;19.00;79.60;;;;;;5012078;28;20417;-61
2024/03/30 11:23:00;;;;;;;33.93;5.50;;;18.90;79.10;;;;;;5011185;28;20488;-61
2024/03/30 11:25:30;;;;;;;20.23;5.47;;;18.90;80.00;;;;;;5010037;28;20412;-61
2024/03/30 11:28:17;;;;;;;24.80;6.40;;;18.80;81.10;;;;;;5011610;28;20804;-61
2024/03/30 11:30:54;;;;;;;22.07;5.47;;;18.60;81.20;;;;;;5008145;28;20422;-61
2024/03/30 11:33:33;;;;;;;35.73;19.40;;;18.60;81.00;;;;;;5011537;28;20464;-63
2024/03/30 11:36:15;;;;;;;28.53;16.00;;;18.50;82.00;;;;;;5014191;28;20464;-61
2024/03/30 11:38:47;;;;;;;44.30;26.27;;;18.40;81.70;;;;;;5002941;28;20436;-62
2024/03/30 11:41:16;;;;;;;19.10;6.63;;;18.40;82.00;;;;;;5011315;28;20480;-61
2024/03/30 11:43:58;;;;;;;15.83;6.20;;;18.30;82.50;;;;;;5008374;28;20437;-61
2024/03/30 11:46:25;;;;;;;21.60;5.50;;;18.00;83.00;;;;;;5010662;28;20793;-61
2024/03/30 11:48:52;;;;;;;18.07;5.23;;;18.00;83.40;;;;;;5014118;28;20529;-61
2024/03/30 11:51:19;;;;;;;20.27;4.90;;;18.00;83.80;;;;;;5013289;28;20825;-61
2024/03/30 11:53:45;;;;;;;18.70;5.33;;;18.00;84.20;;;;;;4996775;28;20442;-61
2024/03/30 11:56:12;;;;;;;20.50;6.20;;;17.90;83.70;;;;;;4996614;28;20898;-64
2024/03/30 11:58:41;;;;;;;21.70;6.33;;;18.00;85.20;;;;;;4996039;28;20442;-61
2024/03/30 12:01:12;;;;;;;14.37;5.63;;;18.00;84.70;;;;;;5015770;28;20440;-61
2024/03/30 12:03:40;;;;;;;25.67;5.87;;;17.90;85.90;;;;;;5012360;28;20527;-61
2024/03/30 12:06:06;;;;;;;29.33;7.20;;;17.90;85.60;;;;;;5015523;28;20422;-61
2024/03/30 12:08:32;;;;;;;13.33;6.43;;;17.90;86.50;;;;;;5014574;28;20450;-63
2024/03/30 12:11:04;;;;;;;20.63;6.37;;;17.90;86.40;;;;;;5015534;28;20590;-63
2024/03/30 12:13:40;;;;;;;18.33;6.23;;;17.90;85.90;;;;;;5013219;28;20262;-63
2024/03/30 12:16:06;;;;;;;24.07;6.40;;;17.70;86.10;;;;;;5015740;28;20401;-63
2024/03/30 12:18:32;;;;;;;27.77;6.33;;;17.70;85.80;;;;;;5014639;28;20420;-63
2024/03/30 12:20:58;;;;;;;25.47;7.40;;;17.80;86.90;;;;;;5016034;28;20463;-63
2024/03/30 12:23:24;;;;;;;19.20;6.10;;;17.80;86.90;;;;;;5013978;28;20438;-63
2024/03/30 12:25:51;;;;;;;27.90;6.43;;;17.80;86.60;;;;;;5015983;28;20993;-63
2024/03/30 12:28:18;;;;;;;21.70;6.20;;;17.80;87.10;;;;;;5015813;28;20445;-63
2024/03/30 12:30:48;;;;;;;29.33;6.03;;;17.80;85.80;;;;;;5014873;28;20405;-63
2024/03/30 12:33:14;;;;;;;25.47;6.23;;;17.80;85.90;;;;;;5015898;28;20406;-63
2024/03/30 12:35:41;;;;;;;24.00;7.97;;;17.80;87.00;;;;;;5012592;28;20715;-63
2024/03/30 12:38:15;;;;;;;20.73;6.87;;;17.70;86.10;;;;;;5015695;28;20406;-63
2024/03/30 12:40:43;;;;;;;26.60;6.97;;;17.70;85.70;;;;;;5015044;28;20758;-63
2024/03/30 12:43:11;;;;;;;24.50;6.80;;;17.70;86.10;;;;;;5015580;28;20441;-63
2024/03/30 12:45:37;;;;;;;27.47;7.00;;;17.70;87.00;;;;;;5014658;28;20898;-63